sensor_id;sensor_type;location;lat;lon;timestamp;temperature;humidity
35246;DHT22;21379;50.962;6.960;2023-07-08T00:00:12;21.10;87.00
35246;DHT22;21379;50.962;6.960;2023-07-08T00:02:40;21.10;87.00
35246;DHT22;21379;50.962;6.960;2023-07-08T00:05:09;21.00;88.00
35246;DHT22;21379;50.962;6.960;2023-07-08T00:07:37;20.80;88.70
35246;DHT22;21379;50.962;6.960;2023-07-08T00:10:12;20.80;88.90
35246;DHT22;21379;50.962;6.960;2023-07-08T00:12:39;20.70;89.00
35246;DHT22;21379;50.962;6.960;2023-07-08T00:15:07;20.70;88.50
35246;DHT22;21379;50.962;6.960;2023-07-08T00:17:34;20.60;89.10
35246;DHT22;21379;50.962;6.960;2023-07-08T00:20:01;20.50;89.40
35246;DHT22;21379;50.962;6.960;2023-07-08T00:22:28;20.50;89.90
35246;DHT22;21379;50.962;6.960;2023-07-08T00:24:56;20.40;90.30
35246;DHT22;21379;50.962;6.960;2023-07-08T00:27:23;20.30;90.70
35246;DHT22;21379;50.962;6.960;2023-07-08T00:29:50;20.30;91.10
35246;DHT22;21379;50.962;6.960;2023-07-08T00:32:17;20.10;91.20
35246;DHT22;21379;50.962;6.960;2023-07-08T00:34:44;20.10;91.20
35246;DHT22;21379;50.962;6.960;2023-07-08T00:37:12;20.10;91.40
35246;DHT22;21379;50.962;6.960;2023-07-08T00:39:39;20.10;91.70
35246;DHT22;21379;50.962;6.960;2023-07-08T00:42:15;20.10;91.70
35246;DHT22;21379;50.962;6.960;2023-07-08T00:44:43;20.10;91.80
35246;DHT22;21379;50.962;6.960;2023-07-08T00:47:13;20.10;92.00
35246;DHT22;21379;50.962;6.960;2023-07-08T00:49:43;20.10;92.10
35246;DHT22;21379;50.962;6.960;2023-07-08T00:52:23;20.10;92.30
35246;DHT22;21379;50.962;6.960;2023-07-08T00:54:52;20.10;92.70
35246;DHT22;21379;50.962;6.960;2023-07-08T00:57:22;20.10;92.50
35246;DHT22;21379;50.962;6.960;2023-07-08T00:59:54;20.00;92.50
35246;DHT22;21379;50.962;6.960;2023-07-08T01:02:25;19.90;92.60
35246;DHT22;21379;50.962;6.960;2023-07-08T01:04:58;19.90;92.90
35246;DHT22;21379;50.962;6.960;2023-07-08T01:07:28;19.90;93.10
35246;DHT22;21379;50.962;6.960;2023-07-08T01:10:00;19.80;93.20
35246;DHT22;21379;50.962;6.960;2023-07-08T01:12:32;19.80;93.30
35246;DHT22;21379;50.962;6.960;2023-07-08T01:15:02;19.90;93.50
35246;DHT22;21379;50.962;6.960;2023-07-08T01:17:29;19.90;93.40
35246;DHT22;21379;50.962;6.960;2023-07-08T01:19:58;19.90;93.80
35246;DHT22;21379;50.962;6.960;2023-07-08T01:22:27;19.90;93.90
35246;DHT22;21379;50.962;6.960;2023-07-08T01:24:58;19.90;93.80
35246;DHT22;21379;50.962;6.960;2023-07-08T01:27:32;19.90;94.00
35246;DHT22;21379;50.962;6.960;2023-07-08T01:30:02;19.80;94.20
35246;DHT22;21379;50.962;6.960;2023-07-08T01:32:29;19.80;94.20
35246;DHT22;21379;50.962;6.960;2023-07-08T01:34:59;19.70;94.30
35246;DHT22;21379;50.962;6.960;2023-07-08T01:37:34;19.70;94.20
35246;DHT22;21379;50.962;6.960;2023-07-08T01:40:26;19.60;94.40
35246;DHT22;21379;50.962;6.960;2023-07-08T01:42:53;19.70;94.20
35246;DHT22;21379;50.962;6.960;2023-07-08T01:45:23;19.80;94.30
35246;DHT22;21379;50.962;6.960;2023-07-08T01:47:56;19.80;93.80
35246;DHT22;21379;50.962;6.960;2023-07-08T01:50:25;19.70;94.50
35246;DHT22;21379;50.962;6.960;2023-07-08T01:52:56;19.70;95.10
35246;DHT22;21379;50.962;6.960;2023-07-08T01:55:25;19.70;94.50
35246;DHT22;21379;50.962;6.960;2023-07-08T01:57:55;19.70;95.10
35246;DHT22;21379;50.962;6.960;2023-07-08T02:00:23;19.70;95.40
35246;DHT22;21379;50.962;6.960;2023-07-08T02:02:50;19.70;95.20
35246;DHT22;21379;50.962;6.960;2023-07-08T02:05:17;19.70;95.40
35246;DHT22;21379;50.962;6.960;2023-07-08T02:07:44;19.70;95.80
35246;DHT22;21379;50.962;6.960;2023-07-08T02:10:13;19.70;95.80
35246;DHT22;21379;50.962;6.960;2023-07-08T02:12:39;19.60;96.00
35246;DHT22;21379;50.962;6.960;2023-07-08T02:15:08;19.60;96.10
35246;DHT22;21379;50.962;6.960;2023-07-08T02:17:35;19.60;96.10
35246;DHT22;21379;50.962;6.960;2023-07-08T02:20:03;19.60;96.20
35246;DHT22;21379;50.962;6.960;2023-07-08T02:22:30;19.50;96.30
35246;DHT22;21379;50.962;6.960;2023-07-08T02:24:57;19.50;96.80
35246;DHT22;21379;50.962;6.960;2023-07-08T02:27:25;19.40;96.40
35246;DHT22;21379;50.962;6.960;2023-07-08T02:29:52;19.30;97.40
35246;DHT22;21379;50.962;6.960;2023-07-08T02:32:19;19.30;97.40
35246;DHT22;21379;50.962;6.960;2023-07-08T02:34:46;19.30;97.80
35246;DHT22;21379;50.962;6.960;2023-07-08T02:37:13;19.30;97.40
35246;DHT22;21379;50.962;6.960;2023-07-08T02:39:40;19.30;97.30
35246;DHT22;21379;50.962;6.960;2023-07-08T02:42:07;19.20;97.70
35246;DHT22;21379;50.962;6.960;2023-07-08T02:44:37;19.20;97.70
35246;DHT22;21379;50.962;6.960;2023-07-08T02:47:03;19.10;98.10
35246;DHT22;21379;50.962;6.960;2023-07-08T02:49:31;19.00;98.10
35246;DHT22;21379;50.962;6.960;2023-07-08T02:51:57;19.00;98.40
35246;DHT22;21379;50.962;6.960;2023-07-08T02:54:24;19.00;98.10
35246;DHT22;21379;50.962;6.960;2023-07-08T02:56:51;19.00;97.90
35246;DHT22;21379;50.962;6.960;2023-07-08T02:59:18;19.00;97.50
35246;DHT22;21379;50.962;6.960;2023-07-08T03:01:46;19.00;98.00
35246;DHT22;21379;50.962;6.960;2023-07-08T03:04:15;19.00;97.50
35246;DHT22;21379;50.962;6.960;2023-07-08T03:06:45;18.90;97.20
35246;DHT22;21379;50.962;6.960;2023-07-08T03:09:12;18.90;97.00
35246;DHT22;21379;50.962;6.960;2023-07-08T03:11:40;18.90;97.60
35246;DHT22;21379;50.962;6.960;2023-07-08T03:14:08;18.80;97.70
35246;DHT22;21379;50.962;6.960;2023-07-08T03:16:35;18.80;97.60
35246;DHT22;21379;50.962;6.960;2023-07-08T03:19:03;18.80;97.50
35246;DHT22;21379;50.962;6.960;2023-07-08T03:21:30;18.80;97.80
35246;DHT22;21379;50.962;6.960;2023-07-08T03:23:57;18.80;98.00
35246;DHT22;21379;50.962;6.960;2023-07-08T03:26:25;18.90;98.00
35246;DHT22;21379;50.962;6.960;2023-07-08T03:28:54;18.90;98.30
35246;DHT22;21379;50.962;6.960;2023-07-08T03:31:21;18.90;98.20
35246;DHT22;21379;50.962;6.960;2023-07-08T03:33:48;18.90;98.00
35246;DHT22;21379;50.962;6.960;2023-07-08T03:36:19;18.90;98.20
35246;DHT22;21379;50.962;6.960;2023-07-08T03:38:56;18.90;98.40
35246;DHT22;21379;50.962;6.960;2023-07-08T03:41:24;18.90;98.50
35246;DHT22;21379;50.962;6.960;2023-07-08T03:43:51;18.90;98.80
35246;DHT22;21379;50.962;6.960;2023-07-08T03:46:19;18.90;98.80
35246;DHT22;21379;50.962;6.960;2023-07-08T03:48:47;18.90;99.00
35246;DHT22;21379;50.962;6.960;2023-07-08T03:51:20;18.90;98.90
35246;DHT22;21379;50.962;6.960;2023-07-08T03:53:47;18.90;98.70
35246;DHT22;21379;50.962;6.960;2023-07-08T03:56:14;19.00;99.40
35246;DHT22;21379;50.962;6.960;2023-07-08T03:58:41;19.00;99.60
35246;DHT22;21379;50.962;6.960;2023-07-08T04:01:14;19.00;99.80
35246;DHT22;21379;50.962;6.960;2023-07-08T04:03:42;19.00;99.20
35246;DHT22;21379;50.962;6.960;2023-07-08T04:06:08;19.00;98.30
35246;DHT22;21379;50.962;6.960;2023-07-08T04:08:37;19.00;98.10
35246;DHT22;21379;50.962;6.960;2023-07-08T04:11:05;19.10;97.90
35246;DHT22;21379;50.962;6.960;2023-07-08T04:13:32;19.20;97.80
35246;DHT22;21379;50.962;6.960;2023-07-08T04:16:01;19.10;98.00
35246;DHT22;21379;50.962;6.960;2023-07-08T04:18:28;19.10;98.10
35246;DHT22;21379;50.962;6.960;2023-07-08T04:20:55;19.10;98.40
35246;DHT22;21379;50.962;6.960;2023-07-08T04:23:22;19.20;98.40
35246;DHT22;21379;50.962;6.960;2023-07-08T04:25:53;19.20;98.20
35246;DHT22;21379;50.962;6.960;2023-07-08T04:28:21;19.20;98.10
35246;DHT22;21379;50.962;6.960;2023-07-08T04:30:48;19.20;97.60
35246;DHT22;21379;50.962;6.960;2023-07-08T04:33:16;19.20;97.40
35246;DHT22;21379;50.962;6.960;2023-07-08T04:35:44;19.20;96.70
35246;DHT22;21379;50.962;6.960;2023-07-08T04:38:16;19.20;97.00
35246;DHT22;21379;50.962;6.960;2023-07-08T04:40:43;19.20;97.10
35246;DHT22;21379;50.962;6.960;2023-07-08T04:43:11;19.20;96.40
35246;DHT22;21379;50.962;6.960;2023-07-08T04:45:39;19.30;96.40
35246;DHT22;21379;50.962;6.960;2023-07-08T04:48:07;19.30;96.40
35246;DHT22;21379;50.962;6.960;2023-07-08T04:50:39;19.30;96.10
35246;DHT22;21379;50.962;6.960;2023-07-08T04:53:07;19.40;96.30
35246;DHT22;21379;50.962;6.960;2023-07-08T04:55:34;19.40;96.70
35246;DHT22;21379;50.962;6.960;2023-07-08T04:58:01;19.50;96.40
35246;DHT22;21379;50.962;6.960;2023-07-08T05:00:30;19.50;95.80
35246;DHT22;21379;50.962;6.960;2023-07-08T05:02:57;19.60;95.20
35246;DHT22;21379;50.962;6.960;2023-07-08T05:05:24;19.70;95.30
35246;DHT22;21379;50.962;6.960;2023-07-08T05:07:51;19.70;95.50
35246;DHT22;21379;50.962;6.960;2023-07-08T05:10:18;19.70;95.00
35246;DHT22;21379;50.962;6.960;2023-07-08T05:12:45;19.80;94.90
35246;DHT22;21379;50.962;6.960;2023-07-08T05:15:13;19.90;95.00
35246;DHT22;21379;50.962;6.960;2023-07-08T05:17:42;19.90;95.00
35246;DHT22;21379;50.962;6.960;2023-07-08T05:20:11;20.00;94.60
35246;DHT22;21379;50.962;6.960;2023-07-08T05:22:39;20.10;94.40
35246;DHT22;21379;50.962;6.960;2023-07-08T05:25:07;20.20;94.90
35246;DHT22;21379;50.962;6.960;2023-07-08T05:27:34;20.30;95.10
35246;DHT22;21379;50.962;6.960;2023-07-08T05:30:01;20.50;94.30
35246;DHT22;21379;50.962;6.960;2023-07-08T05:32:29;20.60;95.10
35246;DHT22;21379;50.962;6.960;2023-07-08T05:34:57;20.80;94.80
35246;DHT22;21379;50.962;6.960;2023-07-08T05:37:24;20.90;94.30
35246;DHT22;21379;50.962;6.960;2023-07-08T05:39:54;21.00;94.10
35246;DHT22;21379;50.962;6.960;2023-07-08T05:42:21;21.10;93.80
35246;DHT22;21379;50.962;6.960;2023-07-08T05:44:49;21.20;93.30
35246;DHT22;21379;50.962;6.960;2023-07-08T05:47:17;21.30;93.60
35246;DHT22;21379;50.962;6.960;2023-07-08T05:49:44;21.40;92.00
35246;DHT22;21379;50.962;6.960;2023-07-08T05:52:13;21.60;92.50
35246;DHT22;21379;50.962;6.960;2023-07-08T05:54:41;21.70;91.80
35246;DHT22;21379;50.962;6.960;2023-07-08T05:57:10;21.70;91.80
35246;DHT22;21379;50.962;6.960;2023-07-08T05:59:37;21.70;92.50
35246;DHT22;21379;50.962;6.960;2023-07-08T06:02:06;21.90;92.20
35246;DHT22;21379;50.962;6.960;2023-07-08T06:04:33;22.00;91.40
35246;DHT22;21379;50.962;6.960;2023-07-08T06:07:00;22.10;90.20
35246;DHT22;21379;50.962;6.960;2023-07-08T06:09:28;22.20;90.10
35246;DHT22;21379;50.962;6.960;2023-07-08T06:11:55;22.40;88.20
35246;DHT22;21379;50.962;6.960;2023-07-08T06:14:22;22.50;88.50
35246;DHT22;21379;50.962;6.960;2023-07-08T06:16:49;22.70;88.90
35246;DHT22;21379;50.962;6.960;2023-07-08T06:19:16;22.80;87.70
35246;DHT22;21379;50.962;6.960;2023-07-08T06:21:43;22.90;88.50
35246;DHT22;21379;50.962;6.960;2023-07-08T06:24:10;23.00;86.90
35246;DHT22;21379;50.962;6.960;2023-07-08T06:26:38;23.00;85.60
35246;DHT22;21379;50.962;6.960;2023-07-08T06:29:05;23.00;86.70
35246;DHT22;21379;50.962;6.960;2023-07-08T06:31:32;23.10;86.60
35246;DHT22;21379;50.962;6.960;2023-07-08T06:34:00;23.10;87.20
35246;DHT22;21379;50.962;6.960;2023-07-08T06:36:27;23.10;86.00
35246;DHT22;21379;50.962;6.960;2023-07-08T06:38:53;23.10;85.80
35246;DHT22;21379;50.962;6.960;2023-07-08T06:41:20;23.20;87.90
35246;DHT22;21379;50.962;6.960;2023-07-08T06:43:49;23.40;86.50
35246;DHT22;21379;50.962;6.960;2023-07-08T06:46:16;23.50;85.40
35246;DHT22;21379;50.962;6.960;2023-07-08T06:48:44;23.70;86.30
35246;DHT22;21379;50.962;6.960;2023-07-08T06:51:11;23.90;84.50
35246;DHT22;21379;50.962;6.960;2023-07-08T06:53:38;24.20;84.40
35246;DHT22;21379;50.962;6.960;2023-07-08T06:56:05;24.20;85.00
35246;DHT22;21379;50.962;6.960;2023-07-08T06:58:31;24.50;85.00
35246;DHT22;21379;50.962;6.960;2023-07-08T07:01:00;24.70;83.20
35246;DHT22;21379;50.962;6.960;2023-07-08T07:03:27;25.00;83.80
35246;DHT22;21379;50.962;6.960;2023-07-08T07:05:54;25.10;83.50
35246;DHT22;21379;50.962;6.960;2023-07-08T07:08:21;25.00;82.40
35246;DHT22;21379;50.962;6.960;2023-07-08T07:10:48;25.30;84.20
35246;DHT22;21379;50.962;6.960;2023-07-08T07:13:15;25.30;82.60
35246;DHT22;21379;50.962;6.960;2023-07-08T07:15:42;25.20;82.70
35246;DHT22;21379;50.962;6.960;2023-07-08T07:18:10;25.60;83.00
35246;DHT22;21379;50.962;6.960;2023-07-08T07:20:37;25.80;82.00
35246;DHT22;21379;50.962;6.960;2023-07-08T07:23:04;25.90;81.70
35246;DHT22;21379;50.962;6.960;2023-07-08T07:25:31;26.30;81.90
35246;DHT22;21379;50.962;6.960;2023-07-08T07:27:58;26.50;80.30
35246;DHT22;21379;50.962;6.960;2023-07-08T07:30:25;26.20;78.20
35246;DHT22;21379;50.962;6.960;2023-07-08T07:32:52;26.30;79.10
35246;DHT22;21379;50.962;6.960;2023-07-08T07:35:22;26.50;78.50
35246;DHT22;21379;50.962;6.960;2023-07-08T07:37:49;26.60;78.00
35246;DHT22;21379;50.962;6.960;2023-07-08T07:40:15;26.30;78.20
35246;DHT22;21379;50.962;6.960;2023-07-08T07:42:44;26.30;79.50
35246;DHT22;21379;50.962;6.960;2023-07-08T07:45:12;26.30;79.60
35246;DHT22;21379;50.962;6.960;2023-07-08T07:47:40;26.30;78.50
35246;DHT22;21379;50.962;6.960;2023-07-08T07:50:08;26.60;78.80
35246;DHT22;21379;50.962;6.960;2023-07-08T07:52:37;27.00;78.30
35246;DHT22;21379;50.962;6.960;2023-07-08T07:55:04;27.20;77.90
35246;DHT22;21379;50.962;6.960;2023-07-08T07:57:31;27.20;77.90
35246;DHT22;21379;50.962;6.960;2023-07-08T07:59:58;27.20;78.40
35246;DHT22;21379;50.962;6.960;2023-07-08T08:02:25;27.00;76.20
35246;DHT22;21379;50.962;6.960;2023-07-08T08:04:52;26.30;77.70
35246;DHT22;21379;50.962;6.960;2023-07-08T08:07:19;26.70;78.20
35246;DHT22;21379;50.962;6.960;2023-07-08T08:09:47;27.00;77.50
35246;DHT22;21379;50.962;6.960;2023-07-08T08:12:14;26.80;77.80
35246;DHT22;21379;50.962;6.960;2023-07-08T08:14:41;26.90;79.30
35246;DHT22;21379;50.962;6.960;2023-07-08T08:17:07;27.00;77.60
35246;DHT22;21379;50.962;6.960;2023-07-08T08:19:34;27.70;77.70
35246;DHT22;21379;50.962;6.960;2023-07-08T08:22:01;28.30;75.60
35246;DHT22;21379;50.962;6.960;2023-07-08T08:24:28;28.50;75.40
35246;DHT22;21379;50.962;6.960;2023-07-08T08:26:57;28.30;75.70
35246;DHT22;21379;50.962;6.960;2023-07-08T08:29:23;28.30;76.00
35246;DHT22;21379;50.962;6.960;2023-07-08T08:31:50;28.80;76.50
35246;DHT22;21379;50.962;6.960;2023-07-08T08:34:17;28.70;75.40
35246;DHT22;21379;50.962;6.960;2023-07-08T08:36:44;28.90;75.80
35246;DHT22;21379;50.962;6.960;2023-07-08T08:39:11;29.40;75.20
35246;DHT22;21379;50.962;6.960;2023-07-08T08:41:40;29.30;74.10
35246;DHT22;21379;50.962;6.960;2023-07-08T08:44:12;29.10;74.80
35246;DHT22;21379;50.962;6.960;2023-07-08T08:46:45;29.80;75.20
35246;DHT22;21379;50.962;6.960;2023-07-08T08:49:21;29.70;73.20
35246;DHT22;21379;50.962;6.960;2023-07-08T08:51:50;29.60;72.30
35246;DHT22;21379;50.962;6.960;2023-07-08T08:54:18;29.10;72.50
35246;DHT22;21379;50.962;6.960;2023-07-08T08:56:51;29.80;73.40
35246;DHT22;21379;50.962;6.960;2023-07-08T08:59:29;29.80;72.70
35246;DHT22;21379;50.962;6.960;2023-07-08T09:02:10;29.90;72.30
35246;DHT22;21379;50.962;6.960;2023-07-08T09:04:43;30.10;73.50
35246;DHT22;21379;50.962;6.960;2023-07-08T09:07:16;30.10;73.40
35246;DHT22;21379;50.962;6.960;2023-07-08T09:09:53;30.60;73.40
35246;DHT22;21379;50.962;6.960;2023-07-08T09:12:26;30.80;73.20
35246;DHT22;21379;50.962;6.960;2023-07-08T09:14:55;30.70;71.50
35246;DHT22;21379;50.962;6.960;2023-07-08T09:17:27;31.20;72.30
35246;DHT22;21379;50.962;6.960;2023-07-08T09:20:06;31.00;70.70
35246;DHT22;21379;50.962;6.960;2023-07-08T09:22:42;30.80;73.70
35246;DHT22;21379;50.962;6.960;2023-07-08T09:25:22;31.00;71.00
35246;DHT22;21379;50.962;6.960;2023-07-08T09:27:50;31.00;70.10
35246;DHT22;21379;50.962;6.960;2023-07-08T09:30:21;31.20;71.00
35246;DHT22;21379;50.962;6.960;2023-07-08T09:32:48;31.70;72.80
35246;DHT22;21379;50.962;6.960;2023-07-08T09:35:18;31.60;71.50
35246;DHT22;21379;50.962;6.960;2023-07-08T09:37:47;31.90;69.80
35246;DHT22;21379;50.962;6.960;2023-07-08T09:40:17;31.70;70.50
35246;DHT22;21379;50.962;6.960;2023-07-08T09:42:46;31.90;72.00
35246;DHT22;21379;50.962;6.960;2023-07-08T09:45:17;32.40;71.10
35246;DHT22;21379;50.962;6.960;2023-07-08T09:47:51;32.00;70.20
35246;DHT22;21379;50.962;6.960;2023-07-08T09:50:20;31.80;69.30
35246;DHT22;21379;50.962;6.960;2023-07-08T09:52:48;32.00;70.40
35246;DHT22;21379;50.962;6.960;2023-07-08T09:55:18;32.30;70.00
35246;DHT22;21379;50.962;6.960;2023-07-08T09:57:47;32.80;71.00
35246;DHT22;21379;50.962;6.960;2023-07-08T10:00:17;32.90;68.30
35246;DHT22;21379;50.962;6.960;2023-07-08T10:02:49;32.60;67.20
35246;DHT22;21379;50.962;6.960;2023-07-08T10:05:19;32.70;71.30
35246;DHT22;21379;50.962;6.960;2023-07-08T10:07:47;32.70;68.40
35246;DHT22;21379;50.962;6.960;2023-07-08T10:10:18;32.50;70.50
35246;DHT22;21379;50.962;6.960;2023-07-08T10:13:00;32.90;70.40
35246;DHT22;21379;50.962;6.960;2023-07-08T10:15:33;33.30;69.90
35246;DHT22;21379;50.962;6.960;2023-07-08T10:18:01;33.70;70.30
35246;DHT22;21379;50.962;6.960;2023-07-08T10:20:36;33.90;69.40
35246;DHT22;21379;50.962;6.960;2023-07-08T10:23:16;33.50;66.50
35246;DHT22;21379;50.962;6.960;2023-07-08T10:25:49;33.60;69.70
35246;DHT22;21379;50.962;6.960;2023-07-08T10:28:33;33.80;69.10
35246;DHT22;21379;50.962;6.960;2023-07-08T10:31:07;33.60;68.00
35246;DHT22;21379;50.962;6.960;2023-07-08T10:33:51;34.00;68.40
35246;DHT22;21379;50.962;6.960;2023-07-08T10:39:28;33.60;66.20
35246;DHT22;21379;50.962;6.960;2023-07-08T10:42:03;34.10;67.00
35246;DHT22;21379;50.962;6.960;2023-07-08T10:44:37;33.80;68.40
35246;DHT22;21379;50.962;6.960;2023-07-08T10:47:14;34.20;66.90
35246;DHT22;21379;50.962;6.960;2023-07-08T10:49:56;34.30;65.50
35246;DHT22;21379;50.962;6.960;2023-07-08T10:52:41;33.90;67.00
35246;DHT22;21379;50.962;6.960;2023-07-08T10:55:22;34.30;66.10
35246;DHT22;21379;50.962;6.960;2023-07-08T11:01:06;34.20;62.50
35246;DHT22;21379;50.962;6.960;2023-07-08T11:06:46;34.30;65.00
35246;DHT22;21379;50.962;6.960;2023-07-08T11:09:20;34.10;64.00
35246;DHT22;21379;50.962;6.960;2023-07-08T11:11:53;34.80;64.90
35246;DHT22;21379;50.962;6.960;2023-07-08T11:14:25;35.00;66.40
35246;DHT22;21379;50.962;6.960;2023-07-08T11:16:58;34.60;64.80
35246;DHT22;21379;50.962;6.960;2023-07-08T11:19:32;34.80;63.20
35246;DHT22;21379;50.962;6.960;2023-07-08T11:22:07;34.80;64.90
35246;DHT22;21379;50.962;6.960;2023-07-08T11:24:37;34.50;64.90
35246;DHT22;21379;50.962;6.960;2023-07-08T11:27:10;34.80;64.00
35246;DHT22;21379;50.962;6.960;2023-07-08T11:29:44;35.00;63.80
35246;DHT22;21379;50.962;6.960;2023-07-08T11:32:14;35.30;62.70
35246;DHT22;21379;50.962;6.960;2023-07-08T11:34:44;35.80;63.90
35246;DHT22;21379;50.962;6.960;2023-07-08T11:37:15;35.80;63.00
35246;DHT22;21379;50.962;6.960;2023-07-08T11:39:43;35.70;65.00
35246;DHT22;21379;50.962;6.960;2023-07-08T11:42:18;35.40;61.80
35246;DHT22;21379;50.962;6.960;2023-07-08T11:44:49;35.00;63.50
35246;DHT22;21379;50.962;6.960;2023-07-08T11:47:21;35.30;62.90
35246;DHT22;21379;50.962;6.960;2023-07-08T11:49:51;35.60;62.30
35246;DHT22;21379;50.962;6.960;2023-07-08T11:52:22;35.80;62.70
35246;DHT22;21379;50.962;6.960;2023-07-08T11:54:56;35.90;63.30
35246;DHT22;21379;50.962;6.960;2023-07-08T11:57:29;36.40;62.50
35246;DHT22;21379;50.962;6.960;2023-07-08T12:00:14;36.40;62.50
35246;DHT22;21379;50.962;6.960;2023-07-08T12:02:50;35.60;61.10
35246;DHT22;21379;50.962;6.960;2023-07-08T12:05:18;35.70;63.20
35246;DHT22;21379;50.962;6.960;2023-07-08T12:07:56;36.40;65.10
35246;DHT22;21379;50.962;6.960;2023-07-08T12:10:27;36.20;63.20
35246;DHT22;21379;50.962;6.960;2023-07-08T12:12:54;36.90;63.10
35246;DHT22;21379;50.962;6.960;2023-07-08T12:15:23;36.10;62.90
35246;DHT22;21379;50.962;6.960;2023-07-08T12:17:52;36.60;62.50
35246;DHT22;21379;50.962;6.960;2023-07-08T12:20:27;36.70;63.10
35246;DHT22;21379;50.962;6.960;2023-07-08T12:22:55;35.80;62.70
35246;DHT22;21379;50.962;6.960;2023-07-08T12:25:25;36.00;61.50
35246;DHT22;21379;50.962;6.960;2023-07-08T12:27:52;36.80;61.80
35246;DHT22;21379;50.962;6.960;2023-07-08T12:30:19;36.50;60.00
35246;DHT22;21379;50.962;6.960;2023-07-08T12:32:46;36.60;59.00
35246;DHT22;21379;50.962;6.960;2023-07-08T12:35:22;36.60;59.80
35246;DHT22;21379;50.962;6.960;2023-07-08T12:37:51;37.20;59.50
35246;DHT22;21379;50.962;6.960;2023-07-08T12:40:21;36.90;62.30
35246;DHT22;21379;50.962;6.960;2023-07-08T12:42:48;38.10;60.60
35246;DHT22;21379;50.962;6.960;2023-07-08T12:45:18;38.50;59.70
35246;DHT22;21379;50.962;6.960;2023-07-08T12:47:45;38.70;60.50
35246;DHT22;21379;50.962;6.960;2023-07-08T12:50:13;37.40;59.50
35246;DHT22;21379;50.962;6.960;2023-07-08T12:52:42;37.90;59.40
35246;DHT22;21379;50.962;6.960;2023-07-08T12:55:10;38.00;62.90
35246;DHT22;21379;50.962;6.960;2023-07-08T12:57:40;36.90;59.70
35246;DHT22;21379;50.962;6.960;2023-07-08T13:00:14;36.80;60.80
35246;DHT22;21379;50.962;6.960;2023-07-08T13:02:45;36.80;62.00
35246;DHT22;21379;50.962;6.960;2023-07-08T13:05:13;37.60;60.50
35246;DHT22;21379;50.962;6.960;2023-07-08T13:07:42;37.00;60.80
35246;DHT22;21379;50.962;6.960;2023-07-08T13:10:17;37.50;61.40
35246;DHT22;21379;50.962;6.960;2023-07-08T13:12:48;37.80;61.70
35246;DHT22;21379;50.962;6.960;2023-07-08T13:15:21;38.40;60.40
35246;DHT22;21379;50.962;6.960;2023-07-08T13:17:48;37.80;60.20
35246;DHT22;21379;50.962;6.960;2023-07-08T13:20:16;37.90;59.80
35246;DHT22;21379;50.962;6.960;2023-07-08T13:22:49;38.80;60.70
35246;DHT22;21379;50.962;6.960;2023-07-08T13:25:18;39.40;60.00
35246;DHT22;21379;50.962;6.960;2023-07-08T13:27:58;38.70;59.00
35246;DHT22;21379;50.962;6.960;2023-07-08T13:30:27;38.30;57.50
35246;DHT22;21379;50.962;6.960;2023-07-08T13:32:56;38.40;58.50
35246;DHT22;21379;50.962;6.960;2023-07-08T13:35:26;36.70;58.00
35246;DHT22;21379;50.962;6.960;2023-07-08T13:37:55;37.00;59.80
35246;DHT22;21379;50.962;6.960;2023-07-08T13:40:22;36.90;59.70
35246;DHT22;21379;50.962;6.960;2023-07-08T13:42:54;37.00;59.50
35246;DHT22;21379;50.962;6.960;2023-07-08T13:45:24;37.90;59.80
35246;DHT22;21379;50.962;6.960;2023-07-08T13:48:02;38.90;58.40
35246;DHT22;21379;50.962;6.960;2023-07-08T13:50:38;39.40;59.60
35246;DHT22;21379;50.962;6.960;2023-07-08T13:53:19;38.90;58.20
35246;DHT22;21379;50.962;6.960;2023-07-08T13:55:48;37.60;57.20
35246;DHT22;21379;50.962;6.960;2023-07-08T13:58:17;38.30;59.20
35246;DHT22;21379;50.962;6.960;2023-07-08T14:00:44;38.60;56.80
35246;DHT22;21379;50.962;6.960;2023-07-08T14:03:13;38.40;58.30
35246;DHT22;21379;50.962;6.960;2023-07-08T14:05:43;38.10;57.10
35246;DHT22;21379;50.962;6.960;2023-07-08T14:08:14;38.20;56.50
35246;DHT22;21379;50.962;6.960;2023-07-08T14:10:41;38.10;57.40
35246;DHT22;21379;50.962;6.960;2023-07-08T14:13:08;37.40;57.80
35246;DHT22;21379;50.962;6.960;2023-07-08T14:15:37;36.30;58.70
35246;DHT22;21379;50.962;6.960;2023-07-08T14:18:05;36.80;59.40
35246;DHT22;21379;50.962;6.960;2023-07-08T14:20:31;36.60;57.70
35246;DHT22;21379;50.962;6.960;2023-07-08T14:22:59;36.10;59.10
35246;DHT22;21379;50.962;6.960;2023-07-08T14:25:25;36.50;61.00
35246;DHT22;21379;50.962;6.960;2023-07-08T14:27:52;35.60;58.50
35246;DHT22;21379;50.962;6.960;2023-07-08T14:30:19;35.90;59.00
35246;DHT22;21379;50.962;6.960;2023-07-08T14:32:49;36.20;57.50
35246;DHT22;21379;50.962;6.960;2023-07-08T14:35:17;36.40;60.50
35246;DHT22;21379;50.962;6.960;2023-07-08T14:37:45;36.10;60.80
35246;DHT22;21379;50.962;6.960;2023-07-08T14:40:24;36.70;61.10
35246;DHT22;21379;50.962;6.960;2023-07-08T14:42:58;37.00;60.50
35246;DHT22;21379;50.962;6.960;2023-07-08T14:45:26;36.60;60.30
35246;DHT22;21379;50.962;6.960;2023-07-08T14:47:56;36.40;59.50
35246;DHT22;21379;50.962;6.960;2023-07-08T14:50:23;35.50;59.40
35246;DHT22;21379;50.962;6.960;2023-07-08T14:52:51;35.40;59.60
35246;DHT22;21379;50.962;6.960;2023-07-08T14:55:18;35.50;62.60
35246;DHT22;21379;50.962;6.960;2023-07-08T14:57:46;35.30;61.80
35246;DHT22;21379;50.962;6.960;2023-07-08T15:00:15;35.10;62.20
35246;DHT22;21379;50.962;6.960;2023-07-08T15:02:44;34.60;61.80
35246;DHT22;21379;50.962;6.960;2023-07-08T15:05:18;34.70;63.50
35246;DHT22;21379;50.962;6.960;2023-07-08T15:07:48;34.20;61.00
35246;DHT22;21379;50.962;6.960;2023-07-08T15:10:15;34.20;65.40
35246;DHT22;21379;50.962;6.960;2023-07-08T15:12:42;34.20;63.20
35246;DHT22;21379;50.962;6.960;2023-07-08T15:15:21;34.30;61.70
35246;DHT22;21379;50.962;6.960;2023-07-08T15:17:51;34.30;62.30
35246;DHT22;21379;50.962;6.960;2023-07-08T15:20:20;33.70;62.00
35246;DHT22;21379;50.962;6.960;2023-07-08T15:22:48;33.70;62.80
35246;DHT22;21379;50.962;6.960;2023-07-08T15:25:15;33.50;62.60
35246;DHT22;21379;50.962;6.960;2023-07-08T15:27:45;33.80;64.10
35246;DHT22;21379;50.962;6.960;2023-07-08T15:30:18;33.30;64.00
35246;DHT22;21379;50.962;6.960;2023-07-08T15:32:45;33.70;64.70
35246;DHT22;21379;50.962;6.960;2023-07-08T15:35:14;33.80;65.30
35246;DHT22;21379;50.962;6.960;2023-07-08T15:37:43;33.80;64.60
35246;DHT22;21379;50.962;6.960;2023-07-08T15:40:13;34.10;64.90
35246;DHT22;21379;50.962;6.960;2023-07-08T15:42:41;33.90;64.70
35246;DHT22;21379;50.962;6.960;2023-07-08T15:45:16;33.80;63.80
35246;DHT22;21379;50.962;6.960;2023-07-08T15:47:44;33.90;66.20
35246;DHT22;21379;50.962;6.960;2023-07-08T15:50:13;33.70;65.70
35246;DHT22;21379;50.962;6.960;2023-07-08T15:52:40;33.80;65.30